Amherst, South Dakota
Current Conditions -  °F | °C
As of 3:53 PM on Wednesday 22 Oct 2014 (Local Time) from KABR Reporting Station
Overcast Overcast  
Wind Chill: 57°   Ceiling: 8500
Heat Index: 57°   Visibility: 10mi
Dew Point: 53°   Wind: 7mph
Humidity: 87%   Direction: 250°WSW
Pressure: 29.9"   Gusts: NA
Location:  45.74°N, 97.92°W
Report Text: KABR 222053Z AUTO 25006KT 10SM SCT037 BKN085 OVC110 14/12 A2990 RMK AO2 RAB11E40 SLP124 P0000 60005 T01390117 56002
Loading
Personal Weather Stations






























Interactive Weather Map
Tropical Storm Tracking
New forecast layout! Learn more

10-Day Weather Forecast

Advertisements
Track Severe Weather on mobile